sensor_id;sensor_type;location;lat;lon;timestamp;pressure;altitude;pressure_sealevel;temperature;humidity
54876;BME280;40764;48.472;8.166;2022-12-19T00:04:31;99068.72;;;-1.22;89.98
54876;BME280;40764;48.472;8.166;2022-12-19T00:10:32;99065.97;;;-0.94;89.53
54876;BME280;40764;48.472;8.166;2022-12-19T00:16:32;99064.13;;;-0.94;89.04
54876;BME280;40764;48.472;8.166;2022-12-19T00:22:33;99054.66;;;-0.83;89.50
54876;BME280;40764;48.472;8.166;2022-12-19T00:28:33;99046.00;;;-0.85;89.47
54876;BME280;40764;48.472;8.166;2022-12-19T00:34:34;99039.69;;;-1.12;90.37
54876;BME280;40764;48.472;8.166;2022-12-19T00:40:34;99037.31;;;-0.80;90.86
54876;BME280;40764;48.472;8.166;2022-12-19T00:46:35;99033.41;;;-0.71;91.43
54876;BME280;40764;48.472;8.166;2022-12-19T00:52:35;99030.34;;;-0.62;91.19
54876;BME280;40764;48.472;8.166;2022-12-19T00:58:36;99039.88;;;-0.39;90.62
54876;BME280;40764;48.472;8.166;2022-12-19T01:04:37;99042.34;;;-0.57;91.15
54876;BME280;40764;48.472;8.166;2022-12-19T01:10:44;99040.28;;;-0.49;90.80
54876;BME280;40764;48.472;8.166;2022-12-19T01:16:44;99046.94;;;-0.18;90.13
54876;BME280;40764;48.472;8.166;2022-12-19T01:22:45;99023.94;;;-0.60;91.91
54876;BME280;40764;48.472;8.166;2022-12-19T01:28:46;99033.69;;;-0.40;91.80
54876;BME280;40764;48.472;8.166;2022-12-19T01:34:46;99023.56;;;-0.31;92.62
54876;BME280;40764;48.472;8.166;2022-12-19T01:40:55;99024.63;;;-0.12;92.27
54876;BME280;40764;48.472;8.166;2022-12-19T01:46:56;99024.63;;;0.01;92.11
54876;BME280;40764;48.472;8.166;2022-12-19T01:52:57;99012.19;;;0.20;92.15
54876;BME280;40764;48.472;8.166;2022-12-19T01:59:03;99014.91;;;0.13;92.01
54876;BME280;40764;48.472;8.166;2022-12-19T02:05:04;99011.13;;;0.27;91.78
54876;BME280;40764;48.472;8.166;2022-12-19T02:11:05;98988.59;;;0.28;91.99
54876;BME280;40764;48.472;8.166;2022-12-19T02:30:06;98992.16;;;0.80;93.68
54876;BME280;40764;48.472;8.166;2022-12-19T02:36:18;99006.44;;;0.87;92.99
54876;BME280;40764;48.472;8.166;2022-12-19T02:42:27;98998.25;;;0.63;94.42
54876;BME280;40764;48.472;8.166;2022-12-19T02:48:28;99019.75;;;0.69;94.28
54876;BME280;40764;48.472;8.166;2022-12-19T02:54:29;99013.25;;;0.83;95.48
54876;BME280;40764;48.472;8.166;2022-12-19T03:00:31;99020.44;;;1.03;94.82
54876;BME280;40764;48.472;8.166;2022-12-19T03:13:01;99023.59;;;0.86;95.22
54876;BME280;40764;48.472;8.166;2022-12-19T03:19:10;99021.47;;;1.02;95.42
54876;BME280;40764;48.472;8.166;2022-12-19T03:25:12;99014.69;;;0.92;95.48
54876;BME280;40764;48.472;8.166;2022-12-19T03:31:14;99000.94;;;1.07;95.83
54876;BME280;40764;48.472;8.166;2022-12-19T03:37:19;98986.84;;;1.12;96.48
54876;BME280;40764;48.472;8.166;2022-12-19T03:43:22;98991.84;;;1.40;96.49
54876;BME280;40764;48.472;8.166;2022-12-19T03:49:24;98993.50;;;1.41;96.10
54876;BME280;40764;48.472;8.166;2022-12-19T03:55:30;98983.38;;;1.36;96.05
54876;BME280;40764;48.472;8.166;2022-12-19T04:01:33;98990.56;;;1.49;96.70
54876;BME280;40764;48.472;8.166;2022-12-19T04:07:35;98982.25;;;1.50;95.78
54876;BME280;40764;48.472;8.166;2022-12-19T04:13:42;98998.44;;;1.44;96.65
54876;BME280;40764;48.472;8.166;2022-12-19T04:19:52;98996.19;;;1.41;96.68
54876;BME280;40764;48.472;8.166;2022-12-19T04:25:58;98998.66;;;1.49;96.59
54876;BME280;40764;48.472;8.166;2022-12-19T04:32:02;98990.91;;;1.28;97.42
54876;BME280;40764;48.472;8.166;2022-12-19T04:38:03;98996.69;;;1.31;97.07
54876;BME280;40764;48.472;8.166;2022-12-19T04:44:03;98996.41;;;1.46;97.95
54876;BME280;40764;48.472;8.166;2022-12-19T04:50:08;98992.47;;;1.42;97.70
54876;BME280;40764;48.472;8.166;2022-12-19T04:56:09;98991.94;;;1.58;97.18
54876;BME280;40764;48.472;8.166;2022-12-19T05:02:09;98989.25;;;1.58;96.77
54876;BME280;40764;48.472;8.166;2022-12-19T05:08:10;98980.56;;;1.56;97.05
54876;BME280;40764;48.472;8.166;2022-12-19T05:14:10;98988.72;;;1.74;96.84
54876;BME280;40764;48.472;8.166;2022-12-19T05:20:11;98977.31;;;1.72;97.48
54876;BME280;40764;48.472;8.166;2022-12-19T05:26:12;98971.31;;;1.70;96.97
54876;BME280;40764;48.472;8.166;2022-12-19T05:32:12;98962.63;;;1.68;97.96
54876;BME280;40764;48.472;8.166;2022-12-19T05:38:12;98966.53;;;1.47;97.40
54876;BME280;40764;48.472;8.166;2022-12-19T05:44:13;98967.69;;;1.58;98.17
54876;BME280;40764;48.472;8.166;2022-12-19T05:50:14;98964.28;;;1.69;97.34
54876;BME280;40764;48.472;8.166;2022-12-19T05:56:17;98971.38;;;1.89;97.25
54876;BME280;40764;48.472;8.166;2022-12-19T06:02:18;98976.94;;;1.69;96.43
54876;BME280;40764;48.472;8.166;2022-12-19T06:08:19;98974.34;;;1.55;97.88
54876;BME280;40764;48.472;8.166;2022-12-19T06:14:19;98983.88;;;1.58;98.30
54876;BME280;40764;48.472;8.166;2022-12-19T06:20:19;98975.34;;;1.61;98.60
54876;BME280;40764;48.472;8.166;2022-12-19T06:26:20;98980.28;;;1.89;97.67
54876;BME280;40764;48.472;8.166;2022-12-19T06:32:21;98980.66;;;1.74;97.76
54876;BME280;40764;48.472;8.166;2022-12-19T06:38:21;98971.50;;;1.75;98.80
54876;BME280;40764;48.472;8.166;2022-12-19T06:44:22;98962.41;;;1.70;97.49
54876;BME280;40764;48.472;8.166;2022-12-19T06:50:31;98956.69;;;1.60;98.10
54876;BME280;40764;48.472;8.166;2022-12-19T06:56:36;98963.06;;;1.65;98.03
54876;BME280;40764;48.472;8.166;2022-12-19T07:02:37;98951.69;;;1.63;98.40
54876;BME280;40764;48.472;8.166;2022-12-19T07:08:42;98957.00;;;1.70;97.56
54876;BME280;40764;48.472;8.166;2022-12-19T07:14:42;98973.03;;;1.65;97.83
54876;BME280;40764;48.472;8.166;2022-12-19T07:20:43;98981.84;;;1.78;97.66
54876;BME280;40764;48.472;8.166;2022-12-19T07:26:44;98984.41;;;1.92;97.49
54876;BME280;40764;48.472;8.166;2022-12-19T07:32:44;98998.28;;;1.70;97.42
54876;BME280;40764;48.472;8.166;2022-12-19T07:38:45;99007.50;;;1.56;98.40
54876;BME280;40764;48.472;8.166;2022-12-19T07:44:48;99004.72;;;1.69;98.04
54876;BME280;40764;48.472;8.166;2022-12-19T07:50:49;99003.91;;;1.94;97.93
54876;BME280;40764;48.472;8.166;2022-12-19T07:56:50;99014.53;;;1.89;97.52
54876;BME280;40764;48.472;8.166;2022-12-19T08:02:50;99033.28;;;2.02;97.65
54876;BME280;40764;48.472;8.166;2022-12-19T08:08:50;99024.38;;;2.01;96.88
54876;BME280;40764;48.472;8.166;2022-12-19T08:14:51;99027.94;;;1.95;97.07
54876;BME280;40764;48.472;8.166;2022-12-19T08:20:51;99016.13;;;1.96;98.07
54876;BME280;40764;48.472;8.166;2022-12-19T08:26:52;99002.19;;;2.24;97.23
54876;BME280;40764;48.472;8.166;2022-12-19T08:32:53;99004.81;;;2.31;96.78
54876;BME280;40764;48.472;8.166;2022-12-19T08:38:53;98991.53;;;2.29;96.48
54876;BME280;40764;48.472;8.166;2022-12-19T08:44:54;98984.31;;;2.66;96.48
54876;BME280;40764;48.472;8.166;2022-12-19T08:50:56;98986.84;;;2.43;96.33
54876;BME280;40764;48.472;8.166;2022-12-19T08:56:57;98972.28;;;2.80;95.40
54876;BME280;40764;48.472;8.166;2022-12-19T09:02:57;98988.25;;;2.82;95.32
54876;BME280;40764;48.472;8.166;2022-12-19T09:08:57;98974.44;;;3.08;94.40
54876;BME280;40764;48.472;8.166;2022-12-19T09:14:58;98974.53;;;2.84;95.36
54876;BME280;40764;48.472;8.166;2022-12-19T09:20:59;98978.59;;;2.93;94.83
54876;BME280;40764;48.472;8.166;2022-12-19T09:26:59;98983.84;;;3.18;96.41
54876;BME280;40764;48.472;8.166;2022-12-19T09:32:59;98981.38;;;3.46;94.30
54876;BME280;40764;48.472;8.166;2022-12-19T09:39:03;98975.31;;;3.21;93.85
54876;BME280;40764;48.472;8.166;2022-12-19T09:45:32;98979.97;;;3.43;94.21
54876;BME280;40764;48.472;8.166;2022-12-19T09:51:43;98965.25;;;3.28;94.65
54876;BME280;40764;48.472;8.166;2022-12-19T09:57:56;98956.78;;;3.36;94.24
54876;BME280;40764;48.472;8.166;2022-12-19T10:04:03;98950.88;;;3.69;93.80
54876;BME280;40764;48.472;8.166;2022-12-19T10:10:13;98948.56;;;3.96;93.49
54876;BME280;40764;48.472;8.166;2022-12-19T10:22:50;98928.44;;;4.39;91.97
54876;BME280;40764;48.472;8.166;2022-12-19T10:35:15;98901.78;;;4.59;92.39
54876;BME280;40764;48.472;8.166;2022-12-19T10:41:27;98906.84;;;4.67;91.45
54876;BME280;40764;48.472;8.166;2022-12-19T10:47:30;98903.75;;;4.75;91.34
54876;BME280;40764;48.472;8.166;2022-12-19T10:53:30;98904.22;;;4.72;92.61
54876;BME280;40764;48.472;8.166;2022-12-19T10:59:31;98902.78;;;5.10;91.27
54876;BME280;40764;48.472;8.166;2022-12-19T11:05:46;98893.91;;;5.14;92.24
54876;BME280;40764;48.472;8.166;2022-12-19T11:18:11;98852.72;;;5.46;92.12
54876;BME280;40764;48.472;8.166;2022-12-19T11:24:22;98841.53;;;5.42;92.56
54876;BME280;40764;48.472;8.166;2022-12-19T11:30:25;98849.59;;;5.71;92.65
54876;BME280;40764;48.472;8.166;2022-12-19T11:56:15;98824.75;;;5.96;92.95
54876;BME280;40764;48.472;8.166;2022-12-19T12:21:34;98794.03;;;6.12;94.82
54876;BME280;40764;48.472;8.166;2022-12-19T12:34:08;98777.81;;;5.78;96.89
54876;BME280;40764;48.472;8.166;2022-12-19T12:47:00;98792.19;;;5.96;95.72
54876;BME280;40764;48.472;8.166;2022-12-19T12:53:06;98775.28;;;6.10;95.83
54876;BME280;40764;48.472;8.166;2022-12-19T12:59:26;98785.59;;;6.08;95.48
54876;BME280;40764;48.472;8.166;2022-12-19T13:19:03;98780.09;;;5.86;96.57
54876;BME280;40764;48.472;8.166;2022-12-19T13:31:34;98787.47;;;6.30;95.29
54876;BME280;40764;48.472;8.166;2022-12-19T13:37:41;98769.09;;;6.15;96.33
54876;BME280;40764;48.472;8.166;2022-12-19T13:43:41;98784.56;;;6.14;96.33
54876;BME280;40764;48.472;8.166;2022-12-19T13:49:46;98784.00;;;6.12;95.95
54876;BME280;40764;48.472;8.166;2022-12-19T13:55:47;98783.72;;;5.92;97.67
54876;BME280;40764;48.472;8.166;2022-12-19T14:01:51;98783.78;;;5.97;97.55
54876;BME280;40764;48.472;8.166;2022-12-19T14:07:52;98789.69;;;6.11;97.54
54876;BME280;40764;48.472;8.166;2022-12-19T14:14:01;98789.16;;;5.75;97.77
54876;BME280;40764;48.472;8.166;2022-12-19T14:20:23;98795.16;;;5.77;96.81
54876;BME280;40764;48.472;8.166;2022-12-19T14:26:24;98782.50;;;5.66;96.97
54876;BME280;40764;48.472;8.166;2022-12-19T14:32:26;98790.44;;;5.34;97.90
54876;BME280;40764;48.472;8.166;2022-12-19T14:38:29;98787.09;;;5.27;98.95
54876;BME280;40764;48.472;8.166;2022-12-19T14:44:44;98776.13;;;5.39;99.45
54876;BME280;40764;48.472;8.166;2022-12-19T14:50:45;98784.63;;;5.25;98.85
54876;BME280;40764;48.472;8.166;2022-12-19T14:56:54;98787.66;;;5.29;98.87
54876;BME280;40764;48.472;8.166;2022-12-19T15:02:59;98774.81;;;4.91;100.00
54876;BME280;40764;48.472;8.166;2022-12-19T15:09:04;98782.06;;;5.02;100.00
54876;BME280;40764;48.472;8.166;2022-12-19T15:15:40;98779.19;;;4.92;100.00
54876;BME280;40764;48.472;8.166;2022-12-19T15:21:41;98783.13;;;4.56;100.00
54876;BME280;40764;48.472;8.166;2022-12-19T15:27:43;98772.25;;;4.39;100.00
54876;BME280;40764;48.472;8.166;2022-12-19T15:33:44;98771.44;;;4.39;100.00
54876;BME280;40764;48.472;8.166;2022-12-19T15:39:44;98776.03;;;4.38;100.00
54876;BME280;40764;48.472;8.166;2022-12-19T15:45:45;98767.78;;;4.33;100.00
54876;BME280;40764;48.472;8.166;2022-12-19T15:51:47;98761.06;;;4.07;100.00
54876;BME280;40764;48.472;8.166;2022-12-19T15:57:52;98768.38;;;3.95;100.00
54876;BME280;40764;48.472;8.166;2022-12-19T16:03:55;98762.59;;;4.03;100.00
54876;BME280;40764;48.472;8.166;2022-12-19T16:09:55;98758.47;;;4.00;100.00
54876;BME280;40764;48.472;8.166;2022-12-19T16:15:56;98766.44;;;3.79;100.00
54876;BME280;40764;48.472;8.166;2022-12-19T16:21:57;98741.03;;;3.80;100.00
54876;BME280;40764;48.472;8.166;2022-12-19T16:27:58;98760.69;;;4.15;100.00
54876;BME280;40764;48.472;8.166;2022-12-19T16:33:59;98767.53;;;4.06;100.00
54876;BME280;40764;48.472;8.166;2022-12-19T16:40:01;98759.44;;;4.34;100.00
54876;BME280;40764;48.472;8.166;2022-12-19T16:46:05;98770.31;;;4.23;100.00
54876;BME280;40764;48.472;8.166;2022-12-19T16:52:21;98770.34;;;4.11;100.00
54876;BME280;40764;48.472;8.166;2022-12-19T16:58:32;98768.69;;;4.10;100.00
54876;BME280;40764;48.472;8.166;2022-12-19T17:04:36;98781.75;;;4.13;100.00
54876;BME280;40764;48.472;8.166;2022-12-19T17:10:55;98787.59;;;3.82;100.00
54876;BME280;40764;48.472;8.166;2022-12-19T17:16:59;98787.81;;;3.68;100.00
54876;BME280;40764;48.472;8.166;2022-12-19T17:23:10;98785.47;;;3.72;100.00
54876;BME280;40764;48.472;8.166;2022-12-19T17:29:13;98793.59;;;3.60;100.00
54876;BME280;40764;48.472;8.166;2022-12-19T17:35:28;98786.19;;;3.56;100.00
54876;BME280;40764;48.472;8.166;2022-12-19T17:41:38;98785.47;;;3.37;100.00
54876;BME280;40764;48.472;8.166;2022-12-19T17:47:39;98784.06;;;3.58;100.00
54876;BME280;40764;48.472;8.166;2022-12-19T17:53:40;98789.13;;;3.54;100.00
54876;BME280;40764;48.472;8.166;2022-12-19T17:59:40;98781.00;;;3.31;100.00
54876;BME280;40764;48.472;8.166;2022-12-19T18:05:41;98783.72;;;3.42;100.00
54876;BME280;40764;48.472;8.166;2022-12-19T18:11:41;98769.13;;;3.43;100.00
54876;BME280;40764;48.472;8.166;2022-12-19T18:17:42;98777.13;;;3.38;100.00
54876;BME280;40764;48.472;8.166;2022-12-19T18:23:48;98775.47;;;3.37;100.00
54876;BME280;40764;48.472;8.166;2022-12-19T18:29:50;98775.59;;;3.31;100.00
54876;BME280;40764;48.472;8.166;2022-12-19T18:35:50;98778.63;;;3.11;100.00
54876;BME280;40764;48.472;8.166;2022-12-19T18:41:54;98771.34;;;3.00;100.00
54876;BME280;40764;48.472;8.166;2022-12-19T18:47:59;98772.28;;;3.17;100.00
54876;BME280;40764;48.472;8.166;2022-12-19T18:54:11;98769.81;;;3.16;100.00
54876;BME280;40764;48.472;8.166;2022-12-19T19:00:14;98781.56;;;3.09;100.00
54876;BME280;40764;48.472;8.166;2022-12-19T19:06:19;98790.38;;;3.17;100.00
54876;BME280;40764;48.472;8.166;2022-12-19T19:12:27;98781.81;;;3.08;100.00
54876;BME280;40764;48.472;8.166;2022-12-19T19:18:31;98774.88;;;3.00;100.00
54876;BME280;40764;48.472;8.166;2022-12-19T19:25:00;98783.09;;;3.17;100.00
54876;BME280;40764;48.472;8.166;2022-12-19T19:31:09;98781.00;;;3.31;100.00
54876;BME280;40764;48.472;8.166;2022-12-19T19:37:12;98773.03;;;3.24;100.00
54876;BME280;40764;48.472;8.166;2022-12-19T19:43:16;98778.88;;;2.98;100.00
54876;BME280;40764;48.472;8.166;2022-12-19T19:49:19;98770.06;;;3.02;100.00
54876;BME280;40764;48.472;8.166;2022-12-19T19:55:20;98769.63;;;3.29;100.00
54876;BME280;40764;48.472;8.166;2022-12-19T20:01:55;98776.16;;;2.98;100.00
54876;BME280;40764;48.472;8.166;2022-12-19T20:07:55;98760.03;;;2.79;100.00
54876;BME280;40764;48.472;8.166;2022-12-19T20:13:56;98762.66;;;2.98;100.00
54876;BME280;40764;48.472;8.166;2022-12-19T20:19:56;98755.03;;;2.95;100.00
54876;BME280;40764;48.472;8.166;2022-12-19T20:26:00;98764.53;;;3.09;100.00
54876;BME280;40764;48.472;8.166;2022-12-19T20:32:02;98778.63;;;2.99;100.00
54876;BME280;40764;48.472;8.166;2022-12-19T20:38:28;98788.72;;;3.04;100.00
54876;BME280;40764;48.472;8.166;2022-12-19T20:44:28;98781.81;;;3.08;100.00
54876;BME280;40764;48.472;8.166;2022-12-19T20:50:40;98785.91;;;3.10;100.00
54876;BME280;40764;48.472;8.166;2022-12-19T20:56:40;98781.28;;;2.88;100.00
54876;BME280;40764;48.472;8.166;2022-12-19T21:02:44;98789.09;;;2.96;100.00
54876;BME280;40764;48.472;8.166;2022-12-19T21:08:45;98772.75;;;2.91;100.00
54876;BME280;40764;48.472;8.166;2022-12-19T21:14:47;98772.28;;;2.94;100.00
54876;BME280;40764;48.472;8.166;2022-12-19T21:20:51;98767.47;;;3.07;100.00
54876;BME280;40764;48.472;8.166;2022-12-19T21:34:03;98778.75;;;2.93;100.00
54876;BME280;40764;48.472;8.166;2022-12-19T21:40:17;98778.09;;;2.79;100.00
54876;BME280;40764;48.472;8.166;2022-12-19T21:53:52;98783.97;;;2.76;100.00
54876;BME280;40764;48.472;8.166;2022-12-19T21:59:53;98785.50;;;2.72;100.00
54876;BME280;40764;48.472;8.166;2022-12-19T22:05:54;98782.50;;;3.03;100.00
54876;BME280;40764;48.472;8.166;2022-12-19T22:12:01;98768.06;;;2.98;100.00
54876;BME280;40764;48.472;8.166;2022-12-19T22:18:01;98776.41;;;2.96;100.00
54876;BME280;40764;48.472;8.166;2022-12-19T22:24:05;98785.19;;;2.92;100.00
54876;BME280;40764;48.472;8.166;2022-12-19T22:30:06;98777.28;;;2.78;100.00
54876;BME280;40764;48.472;8.166;2022-12-19T22:36:07;98779.59;;;2.63;100.00
54876;BME280;40764;48.472;8.166;2022-12-19T22:42:31;98771.53;;;2.75;100.00
54876;BME280;40764;48.472;8.166;2022-12-19T22:48:31;98786.44;;;2.77;100.00
54876;BME280;40764;48.472;8.166;2022-12-19T22:54:36;98778.81;;;2.86;100.00
54876;BME280;40764;48.472;8.166;2022-12-19T23:00:36;98785.72;;;2.70;100.00
54876;BME280;40764;48.472;8.166;2022-12-19T23:06:36;98789.63;;;2.86;100.00
54876;BME280;40764;48.472;8.166;2022-12-19T23:12:37;98799.59;;;2.86;100.00
54876;BME280;40764;48.472;8.166;2022-12-19T23:18:38;98788.09;;;2.78;100.00
54876;BME280;40764;48.472;8.166;2022-12-19T23:24:38;98796.00;;;2.92;100.00
54876;BME280;40764;48.472;8.166;2022-12-19T23:30:40;98785.75;;;2.82;100.00
54876;BME280;40764;48.472;8.166;2022-12-19T23:36:40;98776.16;;;2.98;100.00
54876;BME280;40764;48.472;8.166;2022-12-19T23:42:40;98777.56;;;3.00;100.00
54876;BME280;40764;48.472;8.166;2022-12-19T23:48:42;98778.00;;;2.86;100.00
54876;BME280;40764;48.472;8.166;2022-12-19T23:54:42;98757.97;;;2.93;100.00
